Todd, North Carolina
Current Conditions -  °F | °C
As of 1:35 AM on Wednesday 28 Jan 2015 (Local Time) from KTNB Reporting Station
Clear Clear  
Wind Chill:   Ceiling: Unl
Heat Index: 20°   Visibility: 10mi
Dew Point:   Wind: 23mph
Humidity: 62%   Direction: 300°WNW
Pressure: 29.96"   Gusts: 30mph
Location:  36.31°N, 81.6°W
Report Text: KTNB 280635Z AUTO 30020G26KT 10SM CLR M07/M13 A2996 RMK AO2 T10661129
Loading
Personal Weather Stations






























Interactive Weather Map New forecast layout! Learn more

10-Day Weather Forecast

Advertisements
Track Severe Weather on mobile